LGX79A LIPR-LJPZ
Flight info
| Callsign | LGX79A |
|---|---|
| Flight time | N/A |
| Altitude | 18000 |
| Route | AMLON L612 CHI M167 LILEE DCT ROTAR |
| Aircraft | C525/L-SDFGRWY/S |
Departure
| Time | 2026-04-18 05:30 |
|---|---|
| Airport | Federico Fellini International Airport (LIPR) |
Arrival
| Time | N/A |
|---|---|
| Airport | Portorož Airport (LJPZ) |
| Time | Latitude | Longitude | Altitude | Speed | Heading |
|---|---|---|---|---|---|
| 2026-04-18 05:20 | 44.02356 | 12.61486 | 14 ft | 0 kts | 351° |
| 2026-04-18 05:27 | 44.02353 | 12.61482 | 14 ft | 3 kts | 163° |
| 2026-04-18 05:27 | 44.02302 | 12.61523 | 15 ft | 10 kts | 182° |
| 2026-04-18 05:27 | 44.02236 | 12.61459 | 14 ft | 12 kts | 216° |
| 2026-04-18 05:28 | 44.02178 | 12.61352 | 14 ft | 15 kts | 288° |
| 2026-04-18 05:28 | 44.02243 | 12.61214 | 14 ft | 19 kts | 308° |
| 2026-04-18 05:28 | 44.02340 | 12.61063 | 14 ft | 22 kts | 306° |
| 2026-04-18 05:28 | 44.02374 | 12.60908 | 13 ft | 13 kts | 216° |
| 2026-04-18 05:29 | 44.02320 | 12.60852 | 14 ft | 9 kts | 214° |
| 2026-04-18 05:29 | 44.02264 | 12.60793 | 15 ft | 10 kts | 201° |
| 2026-04-18 05:29 | 44.02229 | 12.60819 | 16 ft | 0 kts | 124° |
| 2026-04-18 05:30 | 44.02094 | 12.61060 | 16 ft | 74 kts | 127° |
| 2026-04-18 05:30 | 44.01655 | 12.61853 | 187 ft | 120 kts | 127° |
| 2026-04-18 05:30 | 44.01206 | 12.62784 | 868 ft | 119 kts | 123° |
| 2026-04-18 05:30 | 44.00769 | 12.63897 | 1434 ft | 137 kts | 102° |
| 2026-04-18 05:31 | 44.00927 | 12.65267 | 1945 ft | 160 kts | 65° |
| 2026-04-18 05:31 | 44.01681 | 12.66404 | 2680 ft | 166 kts | 26° |
| 2026-04-18 05:31 | 44.02777 | 12.66806 | 3471 ft | 162 kts | 6° |
| 2026-04-18 05:31 | 44.03749 | 12.67019 | 4455 ft | 139 kts | 7° |
| 2026-04-18 05:32 | 44.04747 | 12.67186 | 4987 ft | 148 kts | 2° |
| 2026-04-18 05:32 | 44.05815 | 12.67291 | 5475 ft | 161 kts | 6° |
| 2026-04-18 05:32 | 44.06942 | 12.67436 | 6006 ft | 170 kts | 7° |
| 2026-04-18 05:32 | 44.08154 | 12.67577 | 6549 ft | 180 kts | 8° |
| 2026-04-18 05:33 | 44.09403 | 12.67838 | 7084 ft | 188 kts | 14° |
| 2026-04-18 05:33 | 44.10717 | 12.68215 | 7622 ft | 198 kts | 15° |
| 2026-04-18 05:33 | 44.12095 | 12.68619 | 8200 ft | 206 kts | 15° |
| 2026-04-18 05:33 | 44.13485 | 12.69008 | 8836 ft | 209 kts | 14° |
| 2026-04-18 05:34 | 44.14912 | 12.69395 | 9464 ft | 211 kts | 14° |
| 2026-04-18 05:34 | 44.16362 | 12.69785 | 10084 ft | 213 kts | 14° |
| 2026-04-18 05:34 | 44.17771 | 12.70309 | 10757 ft | 209 kts | 22° |
| 2026-04-18 05:34 | 44.19080 | 12.71079 | 11458 ft | 203 kts | 27° |
| 2026-04-18 05:35 | 44.20324 | 12.71887 | 12162 ft | 197 kts | 27° |
| 2026-04-18 05:35 | 44.21542 | 12.72664 | 12879 ft | 189 kts | 25° |
| 2026-04-18 05:35 | 44.22700 | 12.73374 | 13584 ft | 180 kts | 24° |
| 2026-04-18 05:35 | 44.23808 | 12.74036 | 14283 ft | 169 kts | 23° |
| 2026-04-18 05:36 | 44.24874 | 12.74667 | 14761 ft | 170 kts | 22° |
| 2026-04-18 05:36 | 44.25953 | 12.75301 | 15236 ft | 169 kts | 22° |
| 2026-04-18 05:36 | 44.27037 | 12.75939 | 15714 ft | 169 kts | 21° |
| 2026-04-18 05:36 | 44.28097 | 12.76562 | 16185 ft | 167 kts | 21° |
| 2026-04-18 05:37 | 44.29163 | 12.77190 | 16660 ft | 166 kts | 21° |
| 2026-04-18 05:37 | 44.30228 | 12.77817 | 17047 ft | 170 kts | 20° |
| 2026-04-18 05:37 | 44.31351 | 12.78476 | 17321 ft | 180 kts | 20° |
| 2026-04-18 05:37 | 44.32530 | 12.79168 | 17597 ft | 191 kts | 20° |
| 2026-04-18 05:38 | 44.33793 | 12.79912 | 17868 ft | 202 kts | 20° |
| 2026-04-18 05:38 | 44.35119 | 12.80693 | 18105 ft | 214 kts | 20° |
| 2026-04-18 05:38 | 44.36553 | 12.81539 | 18168 ft | 232 kts | 20° |
| 2026-04-18 05:38 | 44.38090 | 12.82445 | 18170 ft | 250 kts | 20° |